createdAt,value
2019-03-22T00:01:03.714Z,77.53
2019-03-22T00:03:39.364Z,77.46
2019-03-22T00:06:10.293Z,77.45
2019-03-22T00:08:41.141Z,77.42
2019-03-22T00:11:12.152Z,77.64
2019-03-22T00:13:43.141Z,77.43
2019-03-22T00:16:15.410Z,77.53
2019-03-22T00:18:48.558Z,77.67
2019-03-22T00:21:19.222Z,77.84
2019-03-22T00:23:50.221Z,77.84
2019-03-22T00:26:21.143Z,78.08
2019-03-22T00:28:54.276Z,78.14
2019-03-22T00:31:24.912Z,78.32
2019-03-22T00:33:55.820Z,78.42
2019-03-22T00:36:26.640Z,78.76
2019-03-22T00:38:57.664Z,78.81
2019-03-22T00:41:28.942Z,78.87
2019-03-22T00:44:00.125Z,79.18
2019-03-22T00:46:33.374Z,79.17
2019-03-22T00:49:05.660Z,79.16
2019-03-22T00:51:38.071Z,79.17
2019-03-22T00:54:11.941Z,79.36
2019-03-22T00:56:45.392Z,79.62
2019-03-22T00:59:16.497Z,79.93
2019-03-22T01:01:47.236Z,80.07
2019-03-22T01:04:17.962Z,80.17
2019-03-22T01:06:49.315Z,80.14
2019-03-22T01:09:20.106Z,79.79
2019-03-22T01:11:50.882Z,79.82
2019-03-22T01:14:22.028Z,79.76
2019-03-22T01:16:53.208Z,79.97
2019-03-22T01:19:24.501Z,80.10
2019-03-22T01:21:55.492Z,80.02
2019-03-22T01:24:26.857Z,80.10
2019-03-22T01:26:57.627Z,80.10
2019-03-22T01:29:29.021Z,80.30
2019-03-22T01:31:59.893Z,80.27
2019-03-22T01:34:30.700Z,80.63
2019-03-22T01:37:04.575Z,80.67
2019-03-22T01:39:34.496Z,80.62
2019-03-22T01:42:10.061Z,80.64
2019-03-22T01:44:41.240Z,80.72
2019-03-22T01:47:12.096Z,80.83
2019-03-22T01:49:42.977Z,80.77
2019-03-22T01:52:13.761Z,80.87
2019-03-22T01:54:44.681Z,80.98
2019-03-22T01:57:15.796Z,81.16
2019-03-22T01:59:46.611Z,81.44
2019-03-22T02:02:17.352Z,81.69
2019-03-22T02:04:48.761Z,81.87
2019-03-22T02:07:19.607Z,81.71
2019-03-22T02:09:50.685Z,81.32
2019-03-22T02:12:21.582Z,81.16
2019-03-22T02:14:55.503Z,81.19
2019-03-22T02:17:26.773Z,81.63
2019-03-22T02:20:02.264Z,81.63
2019-03-22T02:22:33.193Z,81.91
2019-03-22T02:25:05.826Z,81.91
2019-03-22T02:27:36.956Z,81.86
2019-03-22T02:30:08.040Z,81.90
2019-03-22T02:32:40.535Z,82.07
2019-03-22T02:35:27.440Z,82.05
2019-03-22T02:37:46.309Z,82.46
2019-03-22T02:40:17.875Z,82.38
2019-03-22T02:42:48.727Z,82.47
2019-03-22T02:45:19.776Z,82.56
2019-03-22T02:47:51.300Z,82.42
2019-03-22T02:50:22.575Z,82.31
2019-03-22T02:52:53.248Z,82.03
2019-03-22T02:55:24.148Z,81.90
2019-03-22T02:57:57.690Z,81.99
2019-03-22T03:00:31.152Z,82.18
2019-03-22T03:03:02.114Z,82.29
2019-03-22T03:05:32.854Z,82.28
2019-03-22T03:08:03.824Z,82.60
2019-03-22T03:10:34.692Z,82.80
2019-03-22T03:13:05.753Z,82.81
2019-03-22T03:15:36.442Z,82.94
2019-03-22T03:18:07.456Z,83.29
2019-03-22T03:20:38.254Z,83.22
2019-03-22T03:23:08.957Z,83.27
2019-03-22T03:25:42.003Z,83.27
2019-03-22T03:28:12.856Z,83.33
2019-03-22T03:30:44.959Z,83.46
2019-03-22T03:33:15.956Z,83.55
2019-03-22T03:35:47.243Z,83.42
2019-03-22T03:38:20.034Z,83.72
2019-03-22T03:40:53.827Z,84.05
2019-03-22T03:43:24.541Z,84.17
2019-03-22T03:45:55.303Z,84.24
2019-03-22T03:48:26.178Z,84.45
2019-03-22T03:50:56.956Z,84.52
2019-03-22T03:53:29.374Z,84.44
2019-03-22T03:56:00.522Z,84.27
2019-03-22T03:58:31.218Z,84.27
2019-03-22T04:01:02.011Z,83.93
2019-03-22T04:03:33.009Z,84.00
2019-03-22T04:06:04.106Z,84.13
2019-03-22T04:08:35.073Z,84.02
2019-03-22T04:11:05.828Z,83.97
2019-03-22T04:13:36.831Z,84.16
2019-03-22T04:16:07.548Z,84.46
2019-03-22T04:18:38.283Z,84.72
2019-03-22T04:21:09.100Z,84.86
2019-03-22T04:23:39.904Z,84.69
2019-03-22T04:26:10.741Z,84.51
2019-03-22T04:28:41.798Z,84.51
2019-03-22T04:31:13.031Z,84.47
2019-03-22T04:33:46.861Z,84.88
2019-03-22T04:36:17.570Z,85.01
2019-03-22T04:38:48.648Z,85.00
2019-03-22T04:41:19.646Z,84.54
2019-03-22T04:43:51.009Z,84.51
2019-03-22T04:46:22.233Z,84.65
2019-03-22T04:48:53.992Z,84.85
2019-03-22T04:51:25.927Z,84.69
2019-03-22T04:54:02.403Z,85.08
2019-03-22T04:56:34.450Z,85.12
2019-03-22T04:59:14.174Z,84.97
2019-03-22T05:01:40.289Z,85.09
2019-03-22T05:04:11.560Z,85.32
2019-03-22T05:06:44.401Z,85.62
2019-03-22T05:09:16.564Z,85.99
2019-03-22T05:11:48.708Z,86.23
2019-03-22T05:14:20.063Z,86.20
2019-03-22T05:16:51.767Z,86.21
2019-03-22T05:19:24.320Z,86.02
2019-03-22T05:21:55.768Z,85.70
2019-03-22T05:24:27.098Z,85.51
2019-03-22T05:26:59.666Z,85.44
2019-03-22T05:29:32.507Z,85.45
2019-03-22T05:32:09.837Z,85.45
2019-03-22T05:34:43.615Z,85.71
2019-03-22T05:37:14.752Z,85.88
2019-03-22T05:39:45.612Z,85.97
2019-03-22T05:42:16.641Z,86.09
2019-03-22T05:44:49.689Z,86.20
2019-03-22T05:47:23.387Z,86.20
2019-03-22T05:49:55.751Z,85.80
2019-03-22T05:52:26.762Z,85.52
2019-03-22T05:54:57.914Z,85.32
2019-03-22T05:57:28.979Z,85.06
2019-03-22T06:00:00.429Z,85.03
2019-03-22T06:02:31.335Z,85.03
2019-03-22T06:05:02.599Z,84.99
2019-03-22T06:07:38.173Z,84.56
2019-03-22T06:10:09.104Z,84.15
2019-03-22T06:12:40.439Z,83.79
2019-03-22T06:15:14.202Z,83.30
2019-03-22T06:17:51.557Z,82.72
2019-03-22T06:20:17.725Z,82.16
2019-03-22T06:22:48.618Z,81.41
2019-03-22T06:25:19.336Z,80.52
2019-03-22T06:27:56.275Z,79.39
2019-03-22T06:30:30.297Z,78.27
2019-03-22T06:33:01.406Z,77.75
2019-03-22T06:35:32.380Z,77.03
2019-03-22T06:38:03.512Z,76.13
2019-03-22T06:40:34.455Z,74.75
2019-03-22T06:43:05.932Z,73.82
2019-03-22T06:45:38.865Z,72.81
2019-03-22T06:48:10.261Z,72.22
2019-03-22T06:50:48.451Z,71.40
2019-03-22T06:53:22.373Z,69.43
2019-03-22T06:55:53.380Z,69.43
2019-03-22T06:58:27.652Z,69.44
2019-03-22T07:01:00.194Z,69.29
2019-03-22T07:03:33.777Z,67.57
2019-03-22T07:06:04.886Z,66.92
2019-03-22T07:08:36.152Z,65.42
2019-03-22T07:11:07.182Z,64.77
2019-03-22T07:13:38.148Z,63.76
2019-03-22T07:16:09.448Z,61.30
2019-03-22T07:18:40.613Z,58.97
2019-03-22T07:21:12.084Z,57.43
2019-03-22T07:23:43.169Z,58.18
2019-03-22T07:26:14.110Z,57.98
2019-03-22T07:28:45.352Z,56.80
2019-03-22T07:31:16.250Z,56.28
2019-03-22T07:33:48.127Z,52.70
2019-03-22T07:36:19.148Z,50.90
2019-03-22T07:38:50.449Z,47.85
2019-03-22T07:41:21.478Z,46.84
2019-03-22T07:43:52.705Z,44.54
2019-03-22T07:46:23.802Z,40.88
2019-03-22T07:48:54.967Z,40.36
2019-03-22T07:51:27.467Z,40.58
2019-03-22T07:53:58.479Z,39.90
2019-03-22T07:56:29.537Z,38.45
2019-03-22T07:59:03.723Z,36.80
2019-03-22T08:01:34.802Z,36.80
2019-03-22T08:04:06.808Z,37.27
2019-03-22T08:06:37.849Z,37.27
2019-03-22T08:09:11.027Z,35.62
2019-03-22T08:11:42.369Z,34.81
2019-03-22T08:14:16.922Z,34.23
2019-03-22T08:16:48.030Z,33.44
2019-03-22T08:19:19.011Z,31.38
2019-03-22T08:21:50.401Z,31.06
2019-03-22T08:24:21.528Z,31.25
2019-03-22T08:26:52.862Z,30.61
2019-03-22T08:29:24.208Z,29.73
2019-03-22T08:31:55.502Z,28.63
2019-03-22T08:34:26.867Z,28.01
2019-03-22T08:36:58.028Z,27.61
2019-03-22T08:39:30.177Z,27.18
2019-03-22T08:42:01.539Z,26.78
2019-03-22T08:44:32.889Z,26.18
2019-03-22T08:47:05.742Z,26.25
2019-03-22T08:49:40.287Z,25.57
2019-03-22T08:52:11.650Z,24.33
2019-03-22T08:54:42.915Z,24.02
2019-03-22T08:57:15.624Z,24.06
2019-03-22T08:59:47.256Z,24.02
2019-03-22T09:02:18.564Z,24.23
2019-03-22T09:04:49.678Z,23.21
2019-03-22T09:07:24.448Z,21.96
2019-03-22T09:09:55.890Z,21.02
2019-03-22T09:12:27.062Z,20.34
2019-03-22T09:15:02.332Z,19.31
2019-03-22T09:17:33.365Z,18.41
2019-03-22T09:20:07.488Z,18.13
2019-03-22T09:22:39.157Z,17.57
2019-03-22T09:25:10.492Z,16.88
2019-03-22T09:27:41.520Z,16.91
2019-03-22T09:30:12.996Z,16.13
2019-03-22T09:32:44.078Z,15.30
2019-03-22T09:35:15.439Z,14.82
2019-03-22T09:37:47.049Z,15.16
2019-03-22T09:40:20.872Z,16.69
2019-03-22T09:42:53.140Z,16.29
2019-03-22T09:45:24.401Z,14.82
2019-03-22T09:47:55.919Z,15.16
2019-03-22T09:50:26.809Z,15.10
2019-03-22T09:52:57.605Z,14.90
2019-03-22T09:55:28.533Z,14.35
2019-03-22T09:57:59.277Z,14.25
2019-03-22T10:00:35.432Z,13.76
2019-03-22T10:03:06.473Z,13.77
2019-03-22T10:05:37.431Z,13.59
2019-03-22T10:08:08.251Z,13.17
2019-03-22T10:10:39.665Z,13.43
2019-03-22T10:13:11.098Z,13.43
2019-03-22T10:15:41.872Z,14.07
2019-03-22T10:18:13.015Z,15.11
2019-03-22T10:20:47.371Z,15.57
2019-03-22T10:23:22.394Z,15.71
2019-03-22T10:25:53.095Z,16.36
2019-03-22T10:28:24.987Z,15.65
2019-03-22T10:30:55.724Z,14.73
2019-03-22T10:33:28.268Z,14.80
2019-03-22T10:35:59.288Z,14.68
2019-03-22T10:38:32.055Z,13.40
2019-03-22T10:41:03.587Z,14.21
2019-03-22T10:43:34.354Z,14.82
2019-03-22T10:46:07.859Z,15.00
2019-03-22T10:48:43.318Z,14.36
2019-03-22T10:51:14.391Z,15.05
2019-03-22T10:53:47.295Z,14.08
2019-03-22T10:56:17.739Z,13.62
2019-03-22T10:58:48.510Z,13.53
2019-03-22T11:01:21.283Z,12.92
2019-03-22T11:03:52.942Z,13.36
2019-03-22T11:06:26.366Z,13.93
2019-03-22T11:08:56.579Z,13.36
2019-03-22T11:11:27.600Z,12.90
2019-03-22T11:13:58.703Z,12.81
2019-03-22T11:16:31.484Z,12.05
2019-03-22T11:19:02.208Z,12.43
2019-03-22T11:21:34.742Z,11.81
2019-03-22T11:24:05.401Z,13.53
2019-03-22T11:26:36.701Z,13.00
2019-03-22T11:29:07.589Z,11.56
2019-03-22T11:31:40.175Z,12.35
2019-03-22T11:34:11.633Z,12.19
2019-03-22T11:36:42.862Z,12.62
2019-03-22T11:39:15.708Z,12.72
2019-03-22T11:41:46.555Z,12.17
2019-03-22T11:44:19.579Z,11.78
2019-03-22T11:46:50.118Z,13.67
2019-03-22T11:49:19.712Z,13.76
2019-03-22T11:51:49.169Z,12.69
2019-03-22T11:54:20.413Z,14.04
2019-03-22T11:56:54.319Z,12.74
2019-03-22T11:59:25.243Z,14.02
2019-03-22T12:01:56.136Z,12.97
2019-03-22T12:04:27.119Z,12.16
2019-03-22T12:06:58.239Z,12.41
2019-03-22T12:09:29.420Z,12.63
2019-03-22T12:12:00.211Z,12.42
2019-03-22T12:14:31.304Z,12.73
2019-03-22T12:17:04.839Z,12.64
2019-03-22T12:19:35.643Z,12.56
2019-03-22T12:22:06.961Z,13.30
2019-03-22T12:24:37.916Z,12.48
2019-03-22T12:27:09.311Z,11.72
2019-03-22T12:29:40.233Z,11.78
2019-03-22T12:32:14.566Z,11.80
2019-03-22T12:34:48.130Z,11.24
2019-03-22T12:37:20.303Z,11.48
2019-03-22T12:39:51.203Z,11.24
2019-03-22T12:42:22.341Z,11.53
2019-03-22T12:44:53.418Z,10.80
2019-03-22T12:47:29.527Z,10.82
2019-03-22T12:50:00.499Z,11.15
2019-03-22T12:52:31.491Z,10.72
2019-03-22T12:55:02.224Z,10.90
2019-03-22T12:57:31.956Z,11.07
2019-03-22T13:00:01.838Z,11.89
2019-03-22T13:02:31.536Z,13.29
2019-03-22T13:05:02.638Z,12.84
2019-03-22T13:07:33.768Z,13.72
2019-03-22T13:10:05.884Z,14.72
2019-03-22T13:12:37.293Z,14.95
2019-03-22T13:15:06.932Z,16.00
2019-03-22T13:17:38.041Z,13.15
2019-03-22T13:20:09.828Z,12.41
2019-03-22T13:22:39.463Z,13.18
2019-03-22T13:25:10.551Z,13.39
2019-03-22T13:27:44.327Z,13.84
2019-03-22T13:30:21.373Z,13.71
2019-03-22T13:32:52.458Z,12.34
2019-03-22T13:35:22.201Z,14.11
2019-03-22T13:37:53.189Z,13.11
2019-03-22T13:40:24.226Z,12.30
2019-03-22T13:42:55.298Z,13.01
2019-03-22T13:45:24.882Z,13.02
2019-03-22T13:47:54.672Z,13.79
2019-03-22T13:50:24.258Z,12.23
2019-03-22T13:52:54.991Z,12.18
2019-03-22T13:55:25.969Z,12.99
2019-03-22T13:57:57.233Z,12.87
2019-03-22T14:00:30.906Z,12.82
2019-03-22T14:03:04.971Z,13.65
2019-03-22T14:05:38.757Z,14.56
2019-03-22T14:08:10.294Z,16.49
2019-03-22T14:10:41.397Z,17.02
2019-03-22T14:13:14.265Z,15.95
2019-03-22T14:15:45.269Z,17.10
2019-03-22T14:18:16.108Z,16.83
2019-03-22T14:20:47.106Z,17.10
2019-03-22T14:23:19.945Z,18.24
2019-03-22T14:25:53.426Z,18.53
2019-03-22T14:28:26.115Z,17.81
2019-03-22T14:30:57.013Z,17.05
2019-03-22T14:33:28.391Z,17.08
2019-03-22T14:35:59.571Z,16.59
2019-03-22T14:38:33.215Z,18.44
2019-03-22T14:41:04.253Z,17.98
2019-03-22T14:43:35.425Z,17.71
2019-03-22T14:46:08.478Z,18.22
2019-03-22T14:48:39.646Z,18.34
2019-03-22T14:51:10.652Z,18.55
2019-03-22T14:53:41.908Z,18.65
2019-03-22T14:56:13.028Z,19.33
2019-03-22T14:58:44.293Z,19.77
2019-03-22T15:01:15.571Z,20.31
2019-03-22T15:03:45.279Z,20.71
2019-03-22T15:06:16.685Z,21.01
2019-03-22T15:08:47.729Z,21.35
2019-03-22T15:11:19.658Z,21.79
2019-03-22T15:14:08.520Z,21.81
2019-03-22T15:16:52.295Z,21.95
2019-03-22T15:19:42.603Z,22.44
2019-03-22T15:22:23.327Z,22.12
2019-03-22T15:25:12.391Z,23.02
2019-03-22T15:28:01.813Z,24.50
2019-03-22T15:30:50.760Z,25.45
2019-03-22T15:33:46.936Z,25.98
2019-03-22T15:36:52.112Z,25.41
2019-03-22T15:39:41.143Z,24.94
2019-03-22T15:42:12.132Z,25.22
2019-03-22T15:44:43.617Z,27.70
2019-03-22T15:47:14.701Z,27.24
2019-03-22T15:49:45.875Z,27.40
2019-03-22T15:52:17.139Z,27.08
2019-03-22T15:54:48.286Z,28.84
2019-03-22T15:57:19.304Z,27.72
2019-03-22T15:59:50.275Z,27.87
2019-03-22T16:02:22.355Z,28.37
2019-03-22T16:04:53.267Z,28.21
2019-03-22T16:07:24.693Z,28.85
2019-03-22T16:09:55.762Z,28.32
2019-03-22T16:12:26.989Z,29.42
2019-03-22T16:14:58.502Z,30.42
2019-03-22T16:17:30.734Z,30.98
2019-03-22T16:20:01.748Z,31.43
2019-03-22T16:22:33.824Z,30.99
2019-03-22T16:25:05.849Z,31.91
2019-03-22T16:27:37.865Z,32.24
2019-03-22T16:30:09.270Z,31.58
2019-03-22T16:32:40.390Z,31.75
2019-03-22T16:35:12.676Z,32.39
2019-03-22T16:37:43.834Z,33.96
2019-03-22T16:40:23.890Z,33.70
2019-03-22T16:42:49.024Z,33.98
2019-03-22T16:45:38.471Z,33.34
2019-03-22T16:48:10.553Z,35.04
2019-03-22T16:50:41.830Z,34.07
2019-03-22T16:53:13.135Z,36.01
2019-03-22T16:55:44.126Z,35.73
2019-03-22T16:58:15.383Z,36.32
2019-03-22T17:00:46.835Z,36.89
2019-03-22T17:03:17.898Z,36.61
2019-03-22T17:05:49.375Z,37.18
2019-03-22T17:08:20.419Z,37.62
2019-03-22T17:10:51.506Z,38.56
2019-03-22T17:13:22.637Z,39.43
2019-03-22T17:15:53.722Z,40.12
2019-03-22T17:18:24.727Z,40.62
2019-03-22T17:20:55.850Z,41.02
2019-03-22T17:23:26.724Z,41.56
2019-03-22T17:25:57.716Z,43.38
2019-03-22T17:28:28.727Z,43.58
2019-03-22T17:30:59.452Z,44.12
2019-03-22T17:33:30.761Z,44.10
2019-03-22T17:36:02.223Z,45.17
2019-03-22T17:38:34.304Z,45.80
2019-03-22T17:41:05.533Z,46.29
2019-03-22T17:43:36.715Z,45.88
2019-03-22T17:46:07.845Z,45.65
2019-03-22T17:48:38.960Z,45.79
2019-03-22T17:51:10.185Z,45.86
2019-03-22T17:53:41.405Z,47.58
2019-03-22T17:56:12.724Z,47.53
2019-03-22T17:58:43.982Z,49.80
2019-03-22T18:03:42.131Z,49.73
2019-03-22T18:06:13.168Z,50.35
2019-03-22T18:08:44.284Z,50.62
2019-03-22T18:11:15.594Z,50.46
2019-03-22T18:13:46.650Z,51.08
2019-03-22T18:16:17.766Z,50.64
2019-03-22T18:18:49.090Z,51.12
2019-03-22T18:21:20.312Z,51.26
2019-03-22T18:23:51.677Z,50.82
2019-03-22T18:26:22.725Z,51.03
2019-03-22T18:28:53.912Z,51.96
2019-03-22T18:31:25.076Z,52.42
2019-03-22T18:33:56.136Z,52.82
2019-03-22T18:36:27.266Z,53.42
2019-03-22T18:38:58.240Z,53.48
2019-03-22T18:41:29.515Z,53.74
2019-03-22T18:44:00.413Z,54.15
2019-03-22T18:46:32.268Z,54.45
2019-03-22T18:49:03.366Z,54.54
2019-03-22T18:51:34.777Z,55.16
2019-03-22T18:54:06.829Z,55.27
2019-03-22T18:56:38.281Z,55.57
2019-03-22T18:59:09.306Z,56.25
2019-03-22T19:01:40.541Z,56.25
2019-03-22T19:04:11.785Z,56.53
2019-03-22T19:06:43.288Z,57.63
2019-03-22T19:09:14.451Z,58.20
2019-03-22T19:11:46.480Z,58.45
2019-03-22T19:14:17.679Z,58.45
2019-03-22T19:16:48.917Z,59.05
2019-03-22T19:19:20.297Z,59.70
2019-03-22T19:21:52.600Z,60.80
2019-03-22T19:24:23.743Z,61.48
2019-03-22T19:26:54.831Z,61.86
2019-03-22T19:29:25.997Z,62.21
2019-03-22T19:31:57.113Z,62.30
2019-03-22T19:34:28.382Z,62.24
2019-03-22T19:37:03.316Z,62.33
2019-03-22T19:39:34.437Z,62.67
2019-03-22T19:42:05.541Z,62.98
2019-03-22T19:44:36.659Z,63.54
2019-03-22T19:47:07.850Z,63.72
2019-03-22T19:49:38.981Z,63.98
2019-03-22T19:52:10.306Z,64.41
2019-03-22T19:54:41.227Z,65.09
2019-03-22T19:57:12.152Z,64.91
2019-03-22T19:59:43.318Z,65.26
2019-03-22T20:02:14.361Z,65.43
2019-03-22T20:04:46.295Z,65.57
2019-03-22T20:07:26.515Z,65.58
2019-03-22T20:09:50.401Z,65.54
2019-03-22T20:12:21.775Z,65.89
2019-03-22T20:14:53.458Z,66.22
2019-03-22T20:17:24.875Z,66.49
2019-03-22T20:19:56.223Z,66.88
2019-03-22T20:22:27.418Z,66.64
2019-03-22T20:24:58.762Z,67.20
2019-03-22T20:27:29.720Z,67.68
2019-03-22T20:30:01.044Z,67.72
2019-03-22T20:32:31.998Z,68.28
2019-03-22T20:35:03.012Z,68.09
2019-03-22T20:37:35.188Z,68.54
2019-03-22T20:40:06.652Z,68.70
2019-03-22T20:42:37.746Z,69.21
2019-03-22T20:45:09.282Z,69.19
2019-03-22T20:47:40.341Z,69.18
2019-03-22T20:50:12.468Z,69.39
2019-03-22T20:52:43.347Z,69.59
2019-03-22T20:55:14.675Z,69.63
2019-03-22T20:57:45.723Z,69.86
2019-03-22T21:00:16.926Z,70.02
2019-03-22T21:02:48.021Z,69.67
2019-03-22T21:05:26.951Z,69.93
2019-03-22T21:07:53.409Z,70.59
2019-03-22T21:10:24.522Z,70.87
2019-03-22T21:12:55.642Z,71.00
2019-03-22T21:15:26.685Z,71.01
2019-03-22T21:17:57.907Z,71.21
2019-03-22T21:20:29.106Z,71.62
2019-03-22T21:23:00.699Z,71.91
2019-03-22T21:25:31.858Z,72.19
2019-03-22T21:28:03.969Z,72.65
2019-03-22T21:30:36.308Z,72.70
2019-03-22T21:33:07.445Z,72.43
2019-03-22T21:35:38.578Z,72.58
2019-03-22T21:38:11.128Z,73.09
2019-03-22T21:40:43.367Z,73.20
2019-03-22T21:43:14.659Z,72.87
2019-03-22T21:45:45.823Z,72.74
2019-03-22T21:48:17.159Z,72.87
2019-03-22T21:50:48.331Z,73.03
2019-03-22T21:53:19.385Z,73.47
2019-03-22T21:55:50.530Z,73.68
2019-03-22T21:58:22.017Z,73.82
2019-03-22T22:00:53.153Z,74.10
2019-03-22T22:03:24.501Z,74.18
2019-03-22T22:05:55.870Z,74.30
2019-03-22T22:08:27.313Z,74.44
2019-03-22T22:10:59.947Z,74.86
2019-03-22T22:13:31.036Z,75.50
2019-03-22T22:16:02.128Z,75.40
2019-03-22T22:18:33.435Z,75.64
2019-03-22T22:21:04.340Z,75.83
2019-03-22T22:23:35.497Z,75.78
2019-03-22T22:26:06.676Z,75.99
2019-03-22T22:28:37.837Z,75.65
2019-03-22T22:31:08.887Z,76.26
2019-03-22T22:33:40.125Z,76.16
2019-03-22T22:36:10.996Z,75.98
2019-03-22T22:38:42.431Z,76.39
2019-03-22T22:41:13.603Z,76.73
2019-03-22T22:43:44.950Z,77.14
2019-03-22T22:46:16.033Z,77.26
2019-03-22T22:48:47.023Z,77.25
2019-03-22T22:51:18.010Z,77.28
2019-03-22T22:53:49.208Z,77.55
2019-03-22T22:56:20.222Z,77.56
2019-03-22T22:58:51.408Z,77.90
2019-03-22T23:01:22.989Z,78.32
2019-03-22T23:03:54.587Z,78.47
2019-03-22T23:06:25.629Z,78.18
2019-03-22T23:08:56.694Z,77.72
2019-03-22T23:11:27.885Z,77.62
2019-03-22T23:13:58.766Z,77.91
2019-03-22T23:16:29.702Z,78.43
2019-03-22T23:19:00.574Z,78.93
2019-03-22T23:21:31.753Z,79.20
2019-03-22T23:24:02.887Z,79.62
2019-03-22T23:26:33.946Z,79.92
2019-03-22T23:29:04.986Z,80.15
2019-03-22T23:31:36.081Z,80.10
2019-03-22T23:34:07.105Z,80.31
2019-03-22T23:36:37.868Z,80.38
2019-03-22T23:39:09.600Z,80.30
2019-03-22T23:41:40.575Z,80.29
2019-03-22T23:44:11.755Z,80.60
2019-03-22T23:46:42.898Z,80.68
2019-03-22T23:49:13.826Z,80.84
2019-03-22T23:51:44.715Z,81.05
2019-03-22T23:54:15.743Z,81.27
2019-03-22T23:56:46.890Z,81.54
2019-03-22T23:59:17.989Z,81.69
